createdAt,value
2023-01-11T00:01:38.202Z,2.53
2023-01-11T00:04:05.238Z,2.35
2023-01-11T00:06:32.154Z,2.28
2023-01-11T00:08:59.582Z,2.85
2023-01-11T00:11:26.923Z,2.67
2023-01-11T00:13:53.736Z,2.55
2023-01-11T00:16:20.561Z,1.98
2023-01-11T00:18:47.380Z,2.20
2023-01-11T00:21:14.959Z,2.08
2023-01-11T00:23:41.889Z,2.08
2023-01-11T00:26:13.177Z,2.58
2023-01-11T00:28:40.170Z,2.05
2023-01-11T00:31:07.101Z,1.88
2023-01-11T00:33:34.575Z,2.63
2023-01-11T00:36:01.535Z,2.50
2023-01-11T00:38:46.945Z,2.10
2023-01-11T00:41:34.650Z,2.00
2023-01-11T00:44:21.343Z,1.90
2023-01-11T00:47:09.662Z,2.03
2023-01-11T00:49:36.836Z,1.83
2023-01-11T00:52:11.472Z,1.63
2023-01-11T00:54:40.568Z,1.88
2023-01-11T00:57:08.745Z,2.00
2023-01-11T00:59:39.350Z,2.05
2023-01-11T01:02:07.900Z,2.00
2023-01-11T01:04:35.019Z,1.52
2023-01-11T01:07:01.965Z,2.55
2023-01-11T01:09:29.007Z,2.03
2023-01-11T01:11:55.916Z,2.10
2023-01-11T01:14:26.095Z,1.98
2023-01-11T01:16:55.334Z,2.22
2023-01-11T01:19:22.898Z,2.50
2023-01-11T01:21:50.976Z,2.00
2023-01-11T01:24:17.979Z,2.00
2023-01-11T01:26:44.927Z,2.00
2023-01-11T01:29:11.997Z,2.20
2023-01-11T01:31:38.908Z,2.22
2023-01-11T01:34:06.537Z,2.70
2023-01-11T01:36:33.867Z,2.63
2023-01-11T01:39:01.644Z,2.08
2023-01-11T01:41:29.172Z,2.67
2023-01-11T01:44:01.398Z,2.90
2023-01-11T01:46:33.736Z,2.53
2023-01-11T01:49:11.575Z,2.10
2023-01-11T01:51:55.723Z,2.30
2023-01-11T01:54:34.620Z,2.00
2023-01-11T01:57:19.946Z,1.83
2023-01-11T01:59:52.113Z,3.03
2023-01-11T02:02:24.881Z,2.78
2023-01-11T02:07:33.520Z,2.75
2023-01-11T02:12:39.917Z,2.80
2023-01-11T02:15:10.167Z,2.60
2023-01-11T02:17:37.220Z,2.50
2023-01-11T02:20:34.924Z,2.50
2023-01-11T02:23:37.491Z,2.78
2023-01-11T02:26:47.290Z,2.95
2023-01-11T02:29:47.307Z,2.83
2023-01-11T02:32:27.864Z,2.92
2023-01-11T02:35:32.300Z,2.15
2023-01-11T02:38:13.865Z,2.30
2023-01-11T02:41:10.837Z,2.50
2023-01-11T02:44:07.679Z,2.60
2023-01-11T02:46:59.141Z,2.42
2023-01-11T02:49:28.755Z,2.50
2023-01-11T02:52:08.539Z,1.73
2023-01-11T02:54:42.358Z,2.50
2023-01-11T02:57:11.697Z,2.22
2023-01-11T02:59:42.137Z,2.67
2023-01-11T03:02:09.841Z,2.35
2023-01-11T03:04:37.856Z,1.55
2023-01-11T03:07:44.804Z,2.00
2023-01-11T03:10:33.530Z,2.65
2023-01-11T03:13:16.929Z,1.92
2023-01-11T03:16:13.571Z,1.45
2023-01-11T03:18:50.411Z,1.90
2023-01-11T03:21:42.818Z,1.88
2023-01-11T03:24:15.743Z,2.08
2023-01-11T03:27:29.080Z,1.85
2023-01-11T03:30:14.389Z,1.73
2023-01-11T03:32:54.379Z,1.90
2023-01-11T03:35:40.839Z,1.90
2023-01-11T03:38:27.643Z,1.83
2023-01-11T03:41:06.795Z,1.42
2023-01-11T03:43:40.350Z,1.42
2023-01-11T03:46:14.912Z,1.67
2023-01-11T03:48:53.782Z,1.95
2023-01-11T03:51:37.349Z,2.33
2023-01-11T03:54:09.965Z,1.45
2023-01-11T03:56:54.056Z,1.27
2023-01-11T03:59:20.961Z,1.20
2023-01-11T04:01:47.796Z,1.75
2023-01-11T04:04:14.638Z,1.80
2023-01-11T04:06:41.637Z,1.50
2023-01-11T04:09:08.474Z,1.20
2023-01-11T04:11:35.253Z,1.40
2023-01-11T04:14:02.290Z,1.77
2023-01-11T04:16:29.335Z,1.33
2023-01-11T04:18:56.443Z,0.90
2023-01-11T04:21:23.267Z,1.17
2023-01-11T04:23:50.107Z,1.80
2023-01-11T04:26:17.635Z,0.95
2023-01-11T04:28:45.122Z,1.80
2023-01-11T04:31:12.705Z,1.23
2023-01-11T04:33:39.520Z,1.80
2023-01-11T04:36:09.609Z,1.02
2023-01-11T04:38:37.838Z,1.55
2023-01-11T04:41:23.841Z,0.75
2023-01-11T04:43:53.638Z,1.40
2023-01-11T04:46:20.556Z,1.10
2023-01-11T04:48:47.321Z,1.63
2023-01-11T04:51:14.117Z,1.33
2023-01-11T04:53:40.895Z,1.70
2023-01-11T04:56:08.582Z,1.92
2023-01-11T04:58:38.064Z,2.50
2023-01-11T05:01:11.171Z,2.70
2023-01-11T05:03:38.317Z,1.98
2023-01-11T05:06:05.686Z,2.45
2023-01-11T05:08:33.170Z,1.67
2023-01-11T05:11:03.479Z,1.80
2023-01-11T05:13:43.257Z,3.05
2023-01-11T05:16:26.239Z,2.42
2023-01-11T05:18:59.069Z,3.67
2023-01-11T05:21:31.457Z,3.28
2023-01-11T05:24:00.856Z,3.70
2023-01-11T05:26:35.270Z,3.38
2023-01-11T05:29:06.330Z,3.33
2023-01-11T05:31:36.274Z,3.00
2023-01-11T05:34:03.707Z,3.63
2023-01-11T05:36:30.534Z,3.60
2023-01-11T05:38:57.656Z,3.63
2023-01-11T05:41:27.478Z,3.10
2023-01-11T05:44:14.171Z,3.58
2023-01-11T05:46:44.139Z,2.97
2023-01-11T05:49:13.428Z,3.28
2023-01-11T05:51:42.303Z,4.57
2023-01-11T05:54:14.561Z,3.55
2023-01-11T05:56:42.975Z,3.90
2023-01-11T05:59:10.280Z,4.00
2023-01-11T06:01:37.328Z,4.82
2023-01-11T06:04:07.089Z,3.95
2023-01-11T06:06:34.373Z,4.80
2023-01-11T06:09:01.359Z,4.75
2023-01-11T06:11:28.284Z,3.90
2023-01-11T06:13:55.303Z,2.88
2023-01-11T06:16:23.593Z,2.17
2023-01-11T06:18:53.408Z,3.30
2023-01-11T06:21:21.410Z,2.72
2023-01-11T06:23:53.878Z,2.40
2023-01-11T06:26:23.282Z,3.17
2023-01-11T06:28:51.440Z,2.65
2023-01-11T06:31:19.119Z,2.33
2023-01-11T06:33:47.236Z,2.55
2023-01-11T06:36:16.129Z,2.90
2023-01-11T06:38:43.874Z,2.40
2023-01-11T06:41:12.467Z,2.08
2023-01-11T06:43:42.226Z,2.17
2023-01-11T06:46:15.269Z,3.13
2023-01-11T06:48:43.525Z,2.55
2023-01-11T06:51:12.003Z,2.55
2023-01-11T06:53:41.047Z,1.88
2023-01-11T06:56:12.317Z,2.90
2023-01-11T06:58:39.699Z,2.40
2023-01-11T07:01:07.249Z,3.58
2023-01-11T07:03:34.556Z,3.13
2023-01-11T07:06:02.111Z,2.75
2023-01-11T07:08:28.864Z,2.78
2023-01-11T07:10:55.742Z,2.35
2023-01-11T07:13:22.957Z,2.10
2023-01-11T07:15:52.283Z,2.40
2023-01-11T07:18:19.951Z,2.75
2023-01-11T07:20:47.591Z,3.33
2023-01-11T07:23:14.577Z,3.08
2023-01-11T07:25:41.784Z,3.45
2023-01-11T07:28:09.348Z,2.47
2023-01-11T07:30:56.197Z,2.38
2023-01-11T07:33:25.897Z,2.17
2023-01-11T07:35:53.714Z,3.92
2023-01-11T07:38:20.846Z,2.88
2023-01-11T07:40:47.868Z,1.92
2023-01-11T07:43:15.302Z,2.17
2023-01-11T07:45:48.066Z,2.22
2023-01-11T07:48:20.693Z,2.75
2023-01-11T07:50:48.591Z,2.08
2023-01-11T07:53:15.733Z,2.60
2023-01-11T07:55:42.841Z,2.20
2023-01-11T07:58:13.639Z,1.80
2023-01-11T08:00:41.676Z,1.75
2023-01-11T08:03:09.405Z,2.15
2023-01-11T08:05:36.463Z,2.30
2023-01-11T08:08:04.406Z,2.75
2023-01-11T08:10:31.626Z,2.45
2023-01-11T08:13:17.540Z,2.75
2023-01-11T08:15:44.672Z,2.33
2023-01-11T08:18:12.505Z,2.45
2023-01-11T08:20:40.548Z,2.88
2023-01-11T08:23:10.409Z,1.73
2023-01-11T08:25:37.931Z,2.45
2023-01-11T08:28:07.575Z,2.22
2023-01-11T08:30:36.481Z,2.88
2023-01-11T08:33:05.532Z,1.83
2023-01-11T08:35:39.195Z,3.15
2023-01-11T08:38:06.845Z,2.30
2023-01-11T08:40:34.182Z,2.58
2023-01-11T08:43:01.153Z,2.42
2023-01-11T08:45:28.208Z,2.20
2023-01-11T08:47:56.019Z,2.50
2023-01-11T08:50:23.192Z,2.45
2023-01-11T08:52:51.845Z,2.28
2023-01-11T08:55:19.936Z,2.70
2023-01-11T08:57:47.297Z,2.13
2023-01-11T09:00:15.640Z,2.72
2023-01-11T09:02:42.716Z,1.55
2023-01-11T09:05:10.100Z,3.20
2023-01-11T09:07:37.082Z,2.60
2023-01-11T09:10:05.337Z,1.63
2023-01-11T09:12:32.893Z,2.97
2023-01-11T09:14:59.993Z,2.90
2023-01-11T09:17:28.023Z,2.33
2023-01-11T09:19:55.057Z,2.22
2023-01-11T09:22:22.192Z,2.95
2023-01-11T09:24:49.441Z,1.92
2023-01-11T09:27:16.756Z,2.45
2023-01-11T09:29:46.160Z,2.67
2023-01-11T09:32:13.121Z,1.75
2023-01-11T09:34:41.742Z,1.88
2023-01-11T09:37:08.930Z,1.88
2023-01-11T09:39:35.759Z,2.35
2023-01-11T09:42:36.688Z,2.33
2023-01-11T09:45:17.790Z,2.25
2023-01-11T09:48:04.951Z,2.60
2023-01-11T09:50:41.181Z,2.65
2023-01-11T09:53:22.480Z,2.03
2023-01-11T09:55:52.894Z,2.90
2023-01-11T09:58:42.600Z,2.67
2023-01-11T10:01:39.359Z,2.67
2023-01-11T10:04:58.669Z,2.97
2023-01-11T10:07:34.605Z,2.13
2023-01-11T10:18:31.227Z,2.42
2023-01-11T10:19:41.745Z,2.33
2023-01-11T10:22:19.603Z,3.47
2023-01-11T10:25:21.795Z,2.20
2023-01-11T10:28:20.114Z,3.15
2023-01-11T10:30:57.498Z,2.65
2023-01-11T10:34:14.113Z,1.90
2023-01-11T10:37:18.761Z,2.00
2023-01-11T10:40:39.742Z,3.30
2023-01-11T10:43:21.898Z,3.08
2023-01-11T10:45:55.698Z,3.40
2023-01-11T10:48:40.318Z,2.05
2023-01-11T10:51:42.004Z,1.95
2023-01-11T10:54:18.128Z,2.10
2023-01-11T10:57:09.063Z,1.40
2023-01-11T11:02:38.858Z,2.00
2023-01-11T11:06:00.035Z,3.15
2023-01-11T11:08:40.829Z,2.42
2023-01-11T11:11:26.795Z,3.45
2023-01-11T11:14:14.327Z,2.72
2023-01-11T11:17:01.335Z,2.53
2023-01-11T11:19:32.989Z,3.78
2023-01-11T11:22:00.764Z,3.13
2023-01-11T11:24:52.049Z,3.60
2023-01-11T11:27:51.544Z,3.35
2023-01-11T11:30:39.425Z,3.92
2023-01-11T11:33:20.660Z,3.47
2023-01-11T11:36:06.690Z,3.05
2023-01-11T11:39:00.455Z,3.30
2023-01-11T11:41:27.408Z,3.58
2023-01-11T11:44:15.134Z,3.95
2023-01-11T11:46:56.851Z,2.50
2023-01-11T11:49:24.167Z,2.72
2023-01-11T11:51:53.051Z,2.60
2023-01-11T11:54:32.631Z,2.70
2023-01-11T11:57:25.145Z,2.30
2023-01-11T12:00:25.297Z,2.78
2023-01-11T12:03:17.333Z,3.08
2023-01-11T12:06:10.315Z,1.90
2023-01-11T12:08:37.518Z,2.83
2023-01-11T12:11:08.211Z,2.75
2023-01-11T12:13:38.845Z,2.53
2023-01-11T12:16:22.983Z,2.58
2023-01-11T12:18:49.942Z,3.72
2023-01-11T12:21:23.565Z,3.30
2023-01-11T12:24:19.138Z,2.67
2023-01-11T12:27:05.606Z,3.13
2023-01-11T12:29:47.710Z,2.20
2023-01-11T12:32:47.841Z,3.20
2023-01-11T12:35:29.869Z,3.53
2023-01-11T12:38:05.769Z,3.10
2023-01-11T12:41:01.603Z,3.38
2023-01-11T12:43:43.525Z,2.58
2023-01-11T12:46:41.266Z,3.17
2023-01-11T12:49:23.408Z,2.47
2023-01-11T12:52:36.400Z,2.67
2023-01-11T12:55:50.362Z,3.63
2023-01-11T12:58:24.141Z,3.40
2023-01-11T13:01:40.842Z,2.85
2023-01-11T13:04:45.311Z,3.25
2023-01-11T13:07:46.019Z,3.72
2023-01-11T13:10:59.435Z,3.50
2023-01-11T13:13:53.480Z,3.25
2023-01-11T13:16:53.599Z,3.35
2023-01-11T13:19:59.543Z,3.10
2023-01-11T13:22:35.295Z,3.65
2023-01-11T13:25:12.584Z,2.40
2023-01-11T13:27:40.998Z,2.15
2023-01-11T13:30:14.750Z,2.13
2023-01-11T13:33:05.679Z,2.85
2023-01-11T13:35:43.116Z,2.53
2023-01-11T13:38:39.983Z,2.03
2023-01-11T13:41:26.591Z,1.67
2023-01-11T13:44:18.106Z,3.15
2023-01-11T13:47:07.018Z,3.20
2023-01-11T13:50:14.428Z,4.07
2023-01-11T13:52:53.147Z,1.92
2023-01-11T13:55:35.221Z,2.38
2023-01-11T13:58:42.375Z,3.08
2023-01-11T14:01:19.853Z,2.80
2023-01-11T14:04:06.033Z,2.85
2023-01-11T14:07:08.770Z,2.00
2023-01-11T14:10:06.687Z,3.15
2023-01-11T14:13:01.491Z,2.85
2023-01-11T14:15:40.982Z,2.85
2023-01-11T14:18:16.717Z,2.05
2023-01-11T14:20:55.181Z,3.22
2023-01-11T14:23:54.889Z,3.28
2023-01-11T14:26:55.791Z,3.10
2023-01-11T14:30:11.343Z,2.97
2023-01-11T14:33:20.742Z,3.17
2023-01-11T14:36:28.849Z,2.58
2023-01-11T14:39:41.446Z,3.30
2023-01-11T14:42:35.262Z,2.40
2023-01-11T14:45:26.620Z,2.75
2023-01-11T14:48:15.961Z,2.70
2023-01-11T14:51:33.256Z,2.45
2023-01-11T14:54:44.963Z,2.55
2023-01-11T14:57:39.860Z,3.42
2023-01-11T15:00:18.957Z,3.28
2023-01-11T15:02:51.212Z,2.20
2023-01-11T15:11:16.299Z,2.50
2023-01-11T15:13:52.759Z,2.28
2023-01-11T15:16:59.322Z,2.88
2023-01-11T15:19:34.302Z,2.45
2023-01-11T15:22:05.928Z,1.45
2023-01-11T15:24:41.067Z,2.85
2023-01-11T15:27:26.478Z,2.75
2023-01-11T15:29:59.136Z,2.70
2023-01-11T15:32:35.782Z,2.70
2023-01-11T15:35:33.665Z,2.63
2023-01-11T15:38:30.390Z,3.10
2023-01-11T15:41:21.335Z,2.80
2023-01-11T15:44:17.369Z,2.10
2023-01-11T15:47:50.497Z,2.38
2023-01-11T15:51:03.562Z,2.42
2023-01-11T15:54:08.756Z,2.97
2023-01-11T15:56:35.664Z,2.88
2023-01-11T15:59:23.837Z,2.67
2023-01-11T16:02:15.777Z,3.10
2023-01-11T16:04:53.352Z,3.35
2023-01-11T16:07:53.719Z,2.90
2023-01-11T16:10:51.627Z,3.38
2023-01-11T16:14:00.263Z,2.83
2023-01-11T16:16:33.369Z,3.95
2023-01-11T16:19:21.995Z,2.92
2023-01-11T16:21:55.647Z,2.63
2023-01-11T16:24:29.591Z,2.35
2023-01-11T16:27:01.765Z,2.83
2023-01-11T16:32:19.339Z,2.20
2023-01-11T16:34:47.098Z,2.58
2023-01-11T16:37:27.138Z,2.95
2023-01-11T16:40:10.569Z,3.08
2023-01-11T16:42:50.196Z,3.53
2023-01-11T16:45:23.165Z,2.63
2023-01-11T16:48:02.049Z,2.13
2023-01-11T16:50:29.780Z,2.13
2023-01-11T16:53:00.254Z,2.17
2023-01-11T16:55:36.890Z,2.10
2023-01-11T16:58:20.801Z,1.70
2023-01-11T17:01:16.543Z,2.80
2023-01-11T17:03:55.015Z,2.75
2023-01-11T17:06:25.072Z,1.90
2023-01-11T17:08:57.398Z,2.13
2023-01-11T17:14:37.009Z,1.85
2023-01-11T17:17:08.392Z,2.40
2023-01-11T17:19:43.177Z,2.90
2023-01-11T17:22:29.523Z,2.45
2023-01-11T17:25:12.788Z,2.03
2023-01-11T17:27:50.104Z,1.90
2023-01-11T17:30:25.852Z,2.58
2023-01-11T17:32:58.964Z,3.05
2023-01-11T17:35:36.589Z,2.40
2023-01-11T17:38:08.150Z,2.95
2023-01-11T17:40:39.502Z,1.85
2023-01-11T17:43:44.206Z,2.67
2023-01-11T17:46:19.352Z,2.58
2023-01-11T17:48:59.605Z,3.67
2023-01-11T17:51:31.479Z,3.10
2023-01-11T17:53:58.394Z,3.05
2023-01-11T17:56:41.807Z,2.40
2023-01-11T17:59:11.465Z,3.10
2023-01-11T18:01:38.855Z,3.88
2023-01-11T18:04:05.726Z,2.22
2023-01-11T18:06:42.468Z,3.00
2023-01-11T18:09:31.847Z,2.72
2023-01-11T18:12:14.271Z,3.53
2023-01-11T18:14:53.343Z,2.40
2023-01-11T18:17:46.459Z,2.13
2023-01-11T18:20:16.330Z,2.63
2023-01-11T18:23:07.801Z,2.80
2023-01-11T18:25:35.891Z,3.03
2023-01-11T18:28:12.022Z,3.42
2023-01-11T18:30:46.124Z,3.67
2023-01-11T18:33:19.839Z,2.78
2023-01-11T18:35:50.685Z,2.40
2023-01-11T18:38:36.521Z,2.92
2023-01-11T18:41:27.576Z,2.78
2023-01-11T18:43:55.652Z,2.55
2023-01-11T18:46:22.648Z,3.00
2023-01-11T18:48:49.700Z,2.55
2023-01-11T18:51:34.300Z,2.33
2023-01-11T18:54:01.636Z,1.90
2023-01-11T18:56:28.613Z,2.20
2023-01-11T18:58:55.495Z,1.77
2023-01-11T19:01:23.150Z,3.03
2023-01-11T19:03:51.115Z,2.45
2023-01-11T19:06:21.067Z,2.53
2023-01-11T19:08:47.910Z,2.83
2023-01-11T19:11:16.465Z,2.35
2023-01-11T19:13:45.076Z,3.17
2023-01-11T19:16:13.340Z,3.75
2023-01-11T19:18:40.272Z,2.60
2023-01-11T19:21:09.192Z,2.70
2023-01-11T19:23:36.006Z,2.97
2023-01-11T19:26:03.171Z,1.92
2023-01-11T19:28:30.408Z,2.85
2023-01-11T19:30:57.668Z,2.42
2023-01-11T19:33:25.170Z,3.65
2023-01-11T19:35:52.075Z,2.53
2023-01-11T19:38:20.256Z,2.63
2023-01-11T19:40:50.352Z,2.38
2023-01-11T19:43:17.618Z,3.15
2023-01-11T19:45:44.547Z,3.30
2023-01-11T19:48:12.328Z,3.33
2023-01-11T19:50:39.194Z,2.88
2023-01-11T19:53:06.028Z,2.78
2023-01-11T19:55:32.877Z,3.08
2023-01-11T19:57:59.783Z,2.55
2023-01-11T20:00:26.644Z,1.92
2023-01-11T20:02:53.623Z,2.78
2023-01-11T20:05:20.567Z,3.00
2023-01-11T20:07:47.517Z,2.97
2023-01-11T20:10:14.414Z,2.53
2023-01-11T20:12:41.279Z,3.63
2023-01-11T20:15:08.792Z,2.25
2023-01-11T20:17:37.862Z,2.75
2023-01-11T20:20:07.028Z,3.67
2023-01-11T20:22:34.134Z,2.58
2023-01-11T20:25:01.024Z,2.08
2023-01-11T20:27:29.305Z,3.83
2023-01-11T20:29:56.121Z,3.25
2023-01-11T20:32:40.201Z,2.35
2023-01-11T20:35:09.522Z,2.67
2023-01-11T20:37:36.786Z,2.72
2023-01-11T20:40:04.155Z,4.25
2023-01-11T20:42:31.503Z,3.10
2023-01-11T20:44:58.592Z,3.72
2023-01-11T20:47:25.401Z,3.47
2023-01-11T20:49:52.239Z,2.70
2023-01-11T20:52:19.124Z,2.67
2023-01-11T20:54:46.019Z,3.15
2023-01-11T20:57:12.968Z,3.28
2023-01-11T20:59:39.876Z,2.47
2023-01-11T21:02:07.712Z,3.05
2023-01-11T21:04:35.773Z,3.72
2023-01-11T21:07:02.769Z,3.78
2023-01-11T21:09:29.712Z,3.58
2023-01-11T21:11:56.797Z,3.75
2023-01-11T21:14:23.779Z,3.67
2023-01-11T21:16:50.798Z,3.92
2023-01-11T21:19:17.855Z,2.55
2023-01-11T21:21:44.837Z,2.97
2023-01-11T21:24:14.907Z,3.85
2023-01-11T21:26:43.636Z,3.40
2023-01-11T21:29:11.731Z,3.92
2023-01-11T21:31:40.291Z,2.63
2023-01-11T21:34:08.200Z,2.47
2023-01-11T21:36:35.225Z,2.30
2023-01-11T21:39:03.379Z,3.47
2023-01-11T21:41:51.719Z,3.00
2023-01-11T21:44:20.742Z,1.98
2023-01-11T21:46:56.896Z,3.47
2023-01-11T21:49:25.046Z,2.05
2023-01-11T21:51:52.882Z,2.08
2023-01-11T21:54:20.315Z,1.95
2023-01-11T21:56:48.774Z,2.22
2023-01-11T21:59:16.718Z,2.65
2023-01-11T22:01:45.974Z,2.35
2023-01-11T22:04:16.321Z,2.70
2023-01-11T22:06:50.884Z,2.60
2023-01-11T22:09:18.996Z,2.60
2023-01-11T22:11:46.520Z,1.80
2023-01-11T22:14:13.599Z,2.10
2023-01-11T22:16:40.886Z,2.20
2023-01-11T22:19:08.668Z,2.08
2023-01-11T22:21:37.130Z,2.38
2023-01-11T22:24:05.901Z,2.05
2023-01-11T22:26:36.465Z,1.83
2023-01-11T22:29:12.993Z,1.75
2023-01-11T22:31:51.516Z,1.50
2023-01-11T22:36:46.522Z,1.95
2023-01-11T22:39:16.147Z,1.25
2023-01-11T22:41:46.045Z,1.40
2023-01-11T22:44:13.569Z,1.17
2023-01-11T22:46:40.925Z,1.63
2023-01-11T22:49:08.816Z,1.10
2023-01-11T22:51:36.571Z,0.80
2023-01-11T22:54:04.533Z,0.90
2023-01-11T22:56:32.782Z,1.05
2023-01-11T22:59:00.363Z,0.70
2023-01-11T23:01:29.925Z,0.70
2023-01-11T23:03:58.057Z,0.63
2023-01-11T23:06:28.953Z,1.00
2023-01-11T23:08:56.849Z,0.85
2023-01-11T23:11:50.291Z,0.90
2023-01-11T23:14:19.429Z,1.20
2023-01-11T23:16:49.839Z,1.27
2023-01-11T23:19:20.360Z,1.50
2023-01-11T23:21:48.075Z,1.30
2023-01-11T23:24:17.144Z,1.52
2023-01-11T23:26:45.287Z,1.80
2023-01-11T23:29:12.292Z,2.25
2023-01-11T23:31:39.349Z,2.00
2023-01-11T23:34:09.603Z,2.30
2023-01-11T23:36:43.121Z,2.03
2023-01-11T23:39:14.691Z,3.45
2023-01-11T23:42:00.267Z,2.63
2023-01-11T23:44:27.532Z,2.17
2023-01-11T23:47:12.781Z,2.45
2023-01-11T23:49:39.822Z,2.00
2023-01-11T23:52:07.033Z,2.75
2023-01-11T23:54:34.619Z,2.72
2023-01-11T23:57:03.271Z,2.30
2023-01-11T23:59:30.690Z,2.42
